createdAt,value
2018-06-29T02:14:09.302Z,64.25
2018-06-29T02:19:14.085Z,66.43
2018-06-29T02:21:56.421Z,62.63
2018-06-29T02:24:29.458Z,51.67
2018-06-29T02:27:00.440Z,55.40
2018-06-29T02:29:29.509Z,53.20
2018-06-29T02:31:58.592Z,47.57
2018-06-29T02:37:03.367Z,69.63
2018-06-29T02:39:32.477Z,73.43
2018-06-29T02:44:37.361Z,76.53
2018-06-29T02:47:06.432Z,79.30
2018-06-29T02:49:36.536Z,75.20
2018-06-29T02:52:06.575Z,69.57
2018-06-29T02:57:13.366Z,72.25
2018-06-29T02:59:46.524Z,67.97
2018-06-29T03:04:51.849Z,73.47
2018-06-29T03:07:20.935Z,71.97
2018-06-29T03:09:50.006Z,71.87
2018-06-29T03:12:19.083Z,60.47
2018-06-29T03:17:23.881Z,71.20
2018-06-29T03:25:05.518Z,71.67
2018-06-29T03:27:40.868Z,65.13
2018-06-29T03:30:33.363Z,55.83
2018-06-29T03:33:06.634Z,58.90
2018-06-29T03:35:42.702Z,62.77
2018-06-29T03:40:53.894Z,75.85
2018-06-29T03:43:22.964Z,66.47
2018-06-29T03:46:01.921Z,60.27
2018-06-29T03:48:41.913Z,57.90
2018-06-29T03:53:46.944Z,79.03
2018-06-29T03:56:16.096Z,70.63
2018-06-29T03:58:45.145Z,64.50
2018-06-29T04:01:14.221Z,77.20
2018-06-29T04:03:44.251Z,62.10
2018-06-29T04:06:14.335Z,60.57
2018-06-29T04:08:43.396Z,59.77
2018-06-29T04:11:12.458Z,79.03
2018-06-29T04:13:41.591Z,86.43
2018-06-29T04:16:11.595Z,79.32
2018-06-29T04:18:40.718Z,74.17
2018-06-29T04:21:09.857Z,63.17
2018-06-29T04:23:38.922Z,87.82
2018-06-29T04:26:09.001Z,76.53
2018-06-29T04:28:41.471Z,66.57
2018-06-29T04:31:10.561Z,64.63
2018-06-29T04:33:41.622Z,60.17
2018-06-29T04:36:11.638Z,69.80
2018-06-29T04:38:45.336Z,64.90
2018-06-29T04:43:50.117Z,79.13
2018-06-29T04:46:19.205Z,69.10
2018-06-29T04:51:33.483Z,80.10
2018-06-29T04:56:38.335Z,83.50
2018-06-29T04:59:07.425Z,67.77
2018-06-29T05:01:40.513Z,66.00
2018-06-29T05:04:20.566Z,66.20
2018-06-29T05:06:49.638Z,69.20
2018-06-29T05:09:20.734Z,66.37
2018-06-29T05:14:25.577Z,82.10
2018-06-29T05:16:54.793Z,85.00
2018-06-29T05:21:59.626Z,90.53
2018-06-29T05:27:04.468Z,84.40
2018-06-29T05:32:09.334Z,79.60
2018-06-29T05:34:38.401Z,63.67
2018-06-29T05:42:20.949Z,72.10
2018-06-29T05:44:51.525Z,57.40
2018-06-29T05:49:58.326Z,59.97
2018-06-29T05:55:03.947Z,69.00
2018-06-29T06:02:44.690Z,55.30
2018-06-29T06:05:18.166Z,42.43
2018-06-29T06:10:22.913Z,43.67
2018-06-29T06:13:02.431Z,45.50
2018-06-29T06:15:43.309Z,41.47
2018-06-29T06:18:24.270Z,39.67
2018-06-29T06:20:53.338Z,38.53
2018-06-29T06:23:22.425Z,47.40
2018-06-29T06:26:06.941Z,49.00
2018-06-29T06:31:33.859Z,50.40
2018-06-29T06:34:14.443Z,39.23
2018-06-29T06:36:53.881Z,39.50
2018-06-29T06:39:23.675Z,37.30
2018-06-29T06:41:52.726Z,34.60
2018-06-29T06:44:21.803Z,43.00
2018-06-29T06:46:51.818Z,38.40
2018-06-29T06:49:21.129Z,37.70
2018-06-29T06:51:50.243Z,37.47
2018-06-29T06:59:30.907Z,47.00
2018-06-29T07:02:00.297Z,40.03
2018-06-29T07:04:29.388Z,44.72
2018-06-29T07:06:59.556Z,39.90
2018-06-29T07:09:29.639Z,46.22
2018-06-29T07:11:58.633Z,39.47
2018-06-29T07:14:27.726Z,37.90
2018-06-29T07:16:56.792Z,36.00
2018-06-29T07:19:27.857Z,35.40
2018-06-29T07:24:35.159Z,45.67
2018-06-29T07:27:05.067Z,40.53
2018-06-29T07:34:46.097Z,51.60
2018-06-29T07:39:52.928Z,48.45
2018-06-29T07:42:22.341Z,48.87
2018-06-29T07:44:51.398Z,41.47
2018-06-29T07:47:20.454Z,37.87
2018-06-29T07:49:51.512Z,36.47
2018-06-29T07:52:22.490Z,133.07
2018-06-29T07:54:51.561Z,35.40
2018-06-29T08:02:35.839Z,41.13
2018-06-29T08:05:06.956Z,36.33
2018-06-29T08:10:11.827Z,38.13
2018-06-29T08:12:41.842Z,33.90
2018-06-29T08:15:10.919Z,31.03
2018-06-29T08:17:52.972Z,28.00
2018-06-29T08:20:31.864Z,26.30
2018-06-29T08:25:37.947Z,35.30
2018-06-29T08:33:24.249Z,38.38
2018-06-29T08:38:31.004Z,34.97
2018-06-29T08:41:00.551Z,39.15
2018-06-29T08:43:29.615Z,34.13
2018-06-29T08:45:58.684Z,36.37
2018-06-29T08:48:28.695Z,30.40
2018-06-29T08:50:58.765Z,29.13
2018-06-29T08:53:27.913Z,30.60
2018-06-29T08:58:36.758Z,34.05
2018-06-29T09:01:10.680Z,34.28
2018-06-29T09:03:43.475Z,27.07
2018-06-29T09:08:48.390Z,32.33
2018-06-29T09:13:53.181Z,33.50
2018-06-29T09:19:00.032Z,33.75
2018-06-29T09:24:04.818Z,32.72
2018-06-29T09:29:13.230Z,31.12
2018-06-29T09:31:43.280Z,34.08
2018-06-29T09:36:51.540Z,30.93
2018-06-29T09:39:20.713Z,27.37
2018-06-29T09:41:54.199Z,28.30
2018-06-29T09:44:24.297Z,26.60
2018-06-29T09:46:53.387Z,28.57
2018-06-29T09:49:24.498Z,26.30
2018-06-29T09:51:55.122Z,27.87
2018-06-29T09:54:45.853Z,31.55
2018-06-29T09:57:14.912Z,26.50
2018-06-29T09:59:43.969Z,30.02
2018-06-29T10:02:14.965Z,27.70
2018-06-29T10:04:49.361Z,27.00
2018-06-29T10:07:19.393Z,27.47
2018-06-29T10:09:48.486Z,24.87
2018-06-29T10:14:53.354Z,27.90
2018-06-29T10:17:25.751Z,29.08
2018-06-29T10:22:30.637Z,33.10
2018-06-29T10:24:59.915Z,33.80
2018-06-29T10:27:28.977Z,30.10
2018-06-29T10:29:59.998Z,30.33
2018-06-29T10:32:31.066Z,30.70
2018-06-29T10:35:03.722Z,31.63
2018-06-29T10:37:33.869Z,33.67
2018-06-29T10:40:03.126Z,30.53
2018-06-29T10:42:35.369Z,33.60
2018-06-29T10:45:04.446Z,30.47
2018-06-29T10:47:34.364Z,30.13
2018-06-29T10:50:06.442Z,27.43
2018-06-29T10:52:39.382Z,25.30
2018-06-29T10:55:14.164Z,26.93
2018-06-29T10:57:44.075Z,27.93
2018-06-29T11:00:16.419Z,26.33
2018-06-29T11:05:21.295Z,33.05
2018-06-29T11:07:53.993Z,30.40
2018-06-29T11:10:23.054Z,27.90
2018-06-29T11:15:27.914Z,34.70
2018-06-29T11:17:56.993Z,33.87
2018-06-29T11:23:01.913Z,34.30
2018-06-29T11:25:30.952Z,32.00
2018-06-29T11:28:03.118Z,32.83
2018-06-29T11:33:12.471Z,32.88
2018-06-29T11:35:41.551Z,33.90
2018-06-29T11:38:10.628Z,31.00
2018-06-29T11:40:39.701Z,30.40
2018-06-29T11:43:08.825Z,32.08
2018-06-29T11:45:40.071Z,31.50
2018-06-29T11:48:09.245Z,29.53
2018-06-29T11:50:38.336Z,30.70
2018-06-29T11:53:08.308Z,32.10
2018-06-29T11:55:37.368Z,29.03
2018-06-29T11:58:06.436Z,28.30
2018-06-29T12:00:35.510Z,29.90
2018-06-29T12:03:04.600Z,29.20
2018-06-29T12:05:33.707Z,27.50
2018-06-29T12:08:02.750Z,31.90
2018-06-29T12:10:31.883Z,32.03
2018-06-29T12:13:03.904Z,31.13
2018-06-29T12:15:33.093Z,30.10
2018-06-29T12:20:39.002Z,32.40
2018-06-29T12:23:08.077Z,35.60
2018-06-29T12:28:12.942Z,33.83
2018-06-29T12:30:43.972Z,29.03
2018-06-29T12:35:50.869Z,31.90
2018-06-29T12:38:24.753Z,31.93
2018-06-29T12:40:55.858Z,29.77
2018-06-29T12:43:25.841Z,31.80
2018-06-29T12:48:30.739Z,33.00
2018-06-29T12:50:59.870Z,29.93
2018-06-29T12:56:04.670Z,30.25
2018-06-29T12:58:38.053Z,29.33
2018-06-29T13:03:44.905Z,30.75
2018-06-29T13:06:13.978Z,27.27
2018-06-29T13:08:43.056Z,28.50
2018-06-29T13:11:12.304Z,30.73
2018-06-29T13:13:41.523Z,29.93
2018-06-29T13:17:23.769Z,30.98
2018-06-29T13:19:52.813Z,30.48
2018-06-29T13:22:23.830Z,27.83
2018-06-29T13:24:52.859Z,27.60
2018-06-29T13:27:22.918Z,29.33
2018-06-29T13:29:52.104Z,27.07
2018-06-29T13:32:21.190Z,27.03
2018-06-29T13:34:50.243Z,27.27
2018-06-29T13:37:19.422Z,27.30
2018-06-29T13:39:48.495Z,28.10
2018-06-29T13:42:17.547Z,32.10
2018-06-29T13:44:46.615Z,31.83
2018-06-29T13:47:15.690Z,30.67
2018-06-29T13:49:50.286Z,28.80
2018-06-29T13:52:19.488Z,30.70
2018-06-29T13:55:07.914Z,31.53
2018-06-29T13:57:39.999Z,30.17
2018-06-29T14:02:44.886Z,32.50
2018-06-29T14:05:13.950Z,30.98
2018-06-29T14:07:47.250Z,29.27
2018-06-29T14:10:18.330Z,27.87
2018-06-29T14:12:50.471Z,28.60
2018-06-29T14:15:24.383Z,27.30
2018-06-29T14:17:55.358Z,27.47
2018-06-29T14:23:00.223Z,26.10
2018-06-29T14:25:29.266Z,27.37
2018-06-29T14:28:01.639Z,26.43
2018-06-29T14:30:32.689Z,26.90
2018-06-29T14:33:03.656Z,25.47
2018-06-29T14:35:48.078Z,25.70
2018-06-29T14:38:21.065Z,24.80
2018-06-29T14:40:54.400Z,25.33
2018-06-29T14:48:36.437Z,23.48
2018-06-29T14:53:42.264Z,25.33
2018-06-29T14:56:11.313Z,25.58
2018-06-29T14:58:40.395Z,32.40
2018-06-29T15:01:18.414Z,39.50
2018-06-29T15:03:47.478Z,30.77
2018-06-29T15:06:16.533Z,25.27
2018-06-29T15:11:21.453Z,23.17
2018-06-29T15:13:50.832Z,23.63
2018-06-29T15:16:24.533Z,22.63
2018-06-29T15:18:59.133Z,26.63
2018-06-29T15:21:28.240Z,22.17
2018-06-29T15:23:57.494Z,23.53
2018-06-29T15:26:26.779Z,21.40
2018-06-29T15:28:55.821Z,20.73
2018-06-29T15:31:24.932Z,22.37
2018-06-29T15:36:29.757Z,22.15
2018-06-29T15:38:59.001Z,22.37
2018-06-29T15:44:03.918Z,21.83
2018-06-29T15:46:33.043Z,22.33
2018-06-29T15:49:02.111Z,20.30
2018-06-29T15:51:31.183Z,22.40
2018-06-29T15:54:00.250Z,21.07
2018-06-29T15:56:29.486Z,18.93
2018-06-29T15:58:59.487Z,20.10
2018-06-29T16:01:28.579Z,18.57
2018-06-29T16:03:57.616Z,20.37
2018-06-29T16:06:26.817Z,19.60
2018-06-29T16:11:31.834Z,21.92
2018-06-29T16:14:09.149Z,20.77
2018-06-29T16:16:49.182Z,21.00
2018-06-29T16:21:53.969Z,23.12
2018-06-29T16:24:23.042Z,21.42
2018-06-29T16:26:57.637Z,21.20
2018-06-29T16:29:26.692Z,21.53
2018-06-29T16:37:10.802Z,20.98
2018-06-29T16:39:40.065Z,20.58
2018-06-29T16:42:10.082Z,21.70
2018-06-29T16:44:47.316Z,20.70
2018-06-29T16:47:17.365Z,23.07
2018-06-29T16:49:50.901Z,20.73
2018-06-29T16:52:21.908Z,23.73
2018-06-29T16:54:53.050Z,21.83
2018-06-29T16:57:32.709Z,22.33
2018-06-29T17:00:01.751Z,22.83
2018-06-29T17:05:06.576Z,24.08
2018-06-29T17:07:35.675Z,23.40
2018-06-29T17:10:04.829Z,22.57
2018-06-29T17:12:33.991Z,21.37
2018-06-29T17:15:03.044Z,23.20
2018-06-29T17:20:07.946Z,24.52
2018-06-29T17:22:37.088Z,23.05
2018-06-29T17:25:07.071Z,21.67
2018-06-29T17:27:36.243Z,21.87
2018-06-29T17:30:05.286Z,22.73
2018-06-29T17:32:34.348Z,21.97
2018-06-29T17:35:03.411Z,23.17
2018-06-29T17:37:33.693Z,20.63
2018-06-29T17:40:02.785Z,22.70
2018-06-29T17:42:31.849Z,24.92
2018-06-29T17:45:00.927Z,23.83
2018-06-29T17:47:30.193Z,23.00
2018-06-29T17:49:59.248Z,21.10
2018-06-29T17:52:32.118Z,22.03
2018-06-29T17:55:01.273Z,23.00
2018-06-29T17:57:30.255Z,21.20
2018-06-29T17:59:59.463Z,22.47
2018-06-29T18:02:29.546Z,21.60
2018-06-29T18:04:58.616Z,23.50
2018-06-29T18:07:27.663Z,24.13
2018-06-29T18:09:56.895Z,22.33
2018-06-29T18:12:25.959Z,23.77
2018-06-29T18:17:40.507Z,25.50
2018-06-29T18:22:45.433Z,25.40
2018-06-29T18:25:14.528Z,26.33
2018-06-29T18:27:44.498Z,26.23
2018-06-29T18:30:13.556Z,25.60
2018-06-29T18:35:24.394Z,26.10
2018-06-29T18:37:56.577Z,28.30
2018-06-29T18:40:29.452Z,26.23
2018-06-29T18:45:34.313Z,30.60
2018-06-29T18:48:03.411Z,29.90
2018-06-29T18:53:08.272Z,28.45
2018-06-29T18:55:38.261Z,27.95
2018-06-29T18:58:09.489Z,27.00
2018-06-29T19:00:38.558Z,26.50
2018-06-29T19:03:07.689Z,26.20
2018-06-29T19:05:36.761Z,32.70
2018-06-29T19:08:05.812Z,27.50
2018-06-29T19:10:35.783Z,30.15
2018-06-29T19:13:04.888Z,28.30
2018-06-29T19:15:33.975Z,30.33
2018-06-29T19:18:03.032Z,33.70
2018-06-29T19:20:40.416Z,28.77
2018-06-29T19:23:10.906Z,27.37
2018-06-29T19:25:39.953Z,30.70
2018-06-29T19:28:14.062Z,30.40
2018-06-29T19:30:43.510Z,32.00
2018-06-29T19:33:13.638Z,28.40
2018-06-29T19:35:42.697Z,28.37
2018-06-29T19:38:12.758Z,30.00
2018-06-29T19:40:41.831Z,29.10
2018-06-29T19:43:14.074Z,30.27
2018-06-29T19:45:44.135Z,28.27
2018-06-29T19:48:14.234Z,29.10
2018-06-29T19:50:43.286Z,29.13
2018-06-29T19:53:12.426Z,29.10
2018-06-29T19:55:42.502Z,35.27
2018-06-29T19:58:11.553Z,28.60
2018-06-29T20:00:40.623Z,29.93
2018-06-29T20:05:48.920Z,37.90
2018-06-29T20:08:17.996Z,34.30
2018-06-29T20:13:22.872Z,37.00
2018-06-29T20:15:53.822Z,35.70
2018-06-29T20:18:22.897Z,31.47
2018-06-29T20:23:33.210Z,34.38
2018-06-29T20:26:05.899Z,30.17
2018-06-29T20:28:41.482Z,34.00
2018-06-29T20:31:24.426Z,32.33
2018-06-29T20:34:08.023Z,29.03
2018-06-29T20:36:49.135Z,27.23
2018-06-29T20:42:08.685Z,31.05
2018-06-29T20:44:48.140Z,31.87
2018-06-29T20:50:01.084Z,32.45
2018-06-29T20:52:45.353Z,30.97
2018-06-29T20:55:23.503Z,26.70
2018-06-29T21:00:28.720Z,33.08
2018-06-29T21:02:57.777Z,32.53
2018-06-29T21:10:39.001Z,33.23
2018-06-29T21:13:09.007Z,33.37
2018-06-29T21:15:40.050Z,32.60
2018-06-29T21:18:09.109Z,28.10
2018-06-29T21:20:38.193Z,28.47
2018-06-29T21:23:07.261Z,28.63
2018-06-29T21:28:13.629Z,32.30
2018-06-29T21:30:42.720Z,33.90
2018-06-29T21:35:47.573Z,30.95
2018-06-29T21:38:16.757Z,29.37
2018-06-29T21:43:21.592Z,31.05
2018-06-29T21:48:32.587Z,32.47
2018-06-29T21:51:01.701Z,33.00
2018-06-29T21:58:42.847Z,33.47
2018-06-29T22:01:12.866Z,29.10
2018-06-29T22:03:41.921Z,27.50
2018-06-29T22:06:10.977Z,27.30
2018-06-29T22:11:15.882Z,32.72
2018-06-29T22:13:44.972Z,29.03
2018-06-29T22:16:14.034Z,26.57
2018-06-29T22:18:43.133Z,28.80
2018-06-29T22:23:47.965Z,32.47
2018-06-29T22:26:18.008Z,31.35
2018-06-29T22:28:51.154Z,28.80
2018-06-29T22:36:37.393Z,31.50
2018-06-29T22:39:07.429Z,26.67
2018-06-29T22:41:36.525Z,27.73
2018-06-29T22:44:07.566Z,25.03
2018-06-29T22:46:41.373Z,27.30
2018-06-29T22:49:18.444Z,25.10
2018-06-29T22:51:49.501Z,24.17
2018-06-29T22:54:19.521Z,27.63
2018-06-29T22:56:48.611Z,24.13
2018-06-29T23:01:53.390Z,30.40
2018-06-29T23:04:24.356Z,30.73
2018-06-29T23:06:53.459Z,26.87
2018-06-29T23:09:22.558Z,25.97
2018-06-29T23:11:51.614Z,27.60
2018-06-29T23:14:20.698Z,26.63
2018-06-29T23:16:49.761Z,25.63
2018-06-29T23:22:02.302Z,29.20
2018-06-29T23:24:31.373Z,27.57
2018-06-29T23:27:01.764Z,27.17
2018-06-29T23:29:30.857Z,24.70
2018-06-29T23:34:35.763Z,26.65
2018-06-29T23:37:06.863Z,28.00
2018-06-29T23:39:35.938Z,29.87
2018-06-29T23:42:05.007Z,24.50
2018-06-29T23:44:34.105Z,25.07
2018-06-29T23:47:05.689Z,29.20
2018-06-29T23:49:34.768Z,29.07
2018-06-29T23:52:03.835Z,25.37
2018-06-29T23:59:44.589Z,33.00
